createdAt,value
2022-10-01T00:01:19.718Z,5.43
2022-10-01T00:03:48.079Z,6.30
2022-10-01T00:06:21.527Z,4.50
2022-10-01T00:08:50.262Z,5.45
2022-10-01T00:11:23.774Z,4.93
2022-10-01T00:13:51.851Z,5.05
2022-10-01T00:16:23.242Z,4.80
2022-10-01T00:18:50.561Z,4.88
2022-10-01T00:21:24.032Z,5.18
2022-10-01T00:23:58.671Z,5.75
2022-10-01T00:26:34.765Z,5.88
2022-10-01T00:29:04.990Z,6.22
2022-10-01T00:31:32.908Z,5.70
2022-10-01T00:34:02.882Z,5.40
2022-10-01T00:36:30.982Z,5.63
2022-10-01T00:39:00.684Z,6.05
2022-10-01T00:41:33.958Z,5.93
2022-10-01T00:44:03.413Z,6.28
2022-10-01T00:46:40.790Z,6.03
2022-10-01T00:49:19.526Z,6.22
2022-10-01T00:52:10.948Z,6.47
2022-10-01T00:55:06.965Z,5.63
2022-10-01T00:57:34.784Z,6.43
2022-10-01T01:00:05.625Z,6.38
2022-10-01T01:02:32.557Z,6.00
2022-10-01T01:05:00.299Z,6.20
2022-10-01T01:07:29.181Z,6.13
2022-10-01T01:09:56.421Z,5.68
2022-10-01T01:12:57.271Z,5.43
2022-10-01T01:15:29.798Z,4.32
2022-10-01T01:18:19.517Z,4.57
2022-10-01T01:21:09.433Z,4.60
2022-10-01T01:23:57.797Z,4.38
2022-10-01T01:26:54.252Z,4.10
2022-10-01T01:29:32.618Z,4.05
2022-10-01T01:32:09.446Z,4.20
2022-10-01T01:34:43.621Z,4.43
2022-10-01T01:37:14.443Z,4.30
2022-10-01T01:39:46.455Z,4.47
2022-10-01T01:42:24.221Z,3.97
2022-10-01T01:44:54.977Z,4.65
2022-10-01T01:47:25.112Z,3.90
2022-10-01T01:49:53.401Z,3.72
2022-10-01T01:52:20.352Z,3.20
2022-10-01T01:54:50.383Z,3.17
2022-10-01T01:57:18.881Z,2.80
2022-10-01T01:59:46.384Z,2.50
2022-10-01T02:02:25.298Z,2.63
2022-10-01T02:05:02.292Z,2.90
2022-10-01T02:07:49.219Z,2.17
2022-10-01T02:10:34.657Z,2.13
2022-10-01T02:13:08.393Z,2.17
2022-10-01T02:16:04.631Z,2.55
2022-10-01T02:19:00.438Z,2.40
2022-10-01T02:21:40.398Z,2.05
2022-10-01T02:24:31.035Z,2.10
2022-10-01T02:27:01.682Z,2.40
2022-10-01T02:29:29.690Z,2.20
2022-10-01T02:31:57.582Z,2.65
2022-10-01T02:34:29.221Z,2.05
2022-10-01T02:36:59.479Z,2.92
2022-10-01T02:39:29.855Z,2.53
2022-10-01T02:41:59.235Z,2.22
2022-10-01T02:44:38.045Z,2.35
2022-10-01T02:47:08.004Z,14.50
2022-10-01T02:49:37.082Z,6.40
2022-10-01T02:52:10.108Z,2.97
2022-10-01T02:54:52.776Z,5.10
2022-10-01T02:57:29.088Z,3.63
2022-10-01T02:59:59.316Z,2.67
2022-10-01T03:02:28.771Z,2.20
2022-10-01T03:04:57.686Z,1.80
2022-10-01T03:07:26.301Z,2.25
2022-10-01T03:09:53.455Z,2.10
2022-10-01T03:12:20.492Z,2.60
2022-10-01T03:14:47.844Z,2.40
2022-10-01T03:17:16.004Z,2.60
2022-10-01T03:19:43.172Z,2.25
2022-10-01T03:22:18.360Z,2.47
2022-10-01T03:24:45.369Z,2.40
2022-10-01T03:27:12.187Z,2.13
2022-10-01T03:29:39.173Z,2.00
2022-10-01T03:32:06.156Z,1.90
2022-10-01T03:34:33.046Z,2.08
2022-10-01T03:36:59.894Z,2.30
2022-10-01T03:39:26.910Z,2.00
2022-10-01T03:41:53.739Z,2.25
2022-10-01T03:44:20.609Z,2.30
2022-10-01T03:46:47.532Z,2.45
2022-10-01T03:49:14.434Z,2.15
2022-10-01T03:51:41.553Z,2.40
2022-10-01T03:54:09.354Z,2.42
2022-10-01T03:56:36.333Z,2.50
2022-10-01T03:59:03.202Z,2.63
2022-10-01T04:01:31.169Z,2.95
2022-10-01T04:03:58.634Z,2.70
2022-10-01T04:06:25.471Z,2.63
2022-10-01T04:08:52.411Z,3.00
2022-10-01T04:11:19.212Z,3.30
2022-10-01T04:13:46.015Z,3.17
2022-10-01T04:16:13.176Z,2.97
2022-10-01T04:18:40.138Z,2.70
2022-10-01T04:21:06.986Z,2.30
2022-10-01T04:23:33.954Z,2.80
2022-10-01T04:26:02.501Z,2.20
2022-10-01T04:28:30.825Z,2.70
2022-10-01T04:31:16.785Z,2.15
2022-10-01T04:33:44.525Z,2.80
2022-10-01T04:36:11.662Z,3.10
2022-10-01T04:38:38.595Z,3.25
2022-10-01T04:41:05.761Z,2.78
2022-10-01T04:43:32.707Z,2.80
2022-10-01T04:45:59.575Z,3.50
2022-10-01T04:48:26.339Z,2.67
2022-10-01T04:50:53.522Z,2.97
2022-10-01T04:53:20.387Z,2.70
2022-10-01T04:55:47.155Z,2.88
2022-10-01T04:58:14.186Z,2.40
2022-10-01T05:00:41.459Z,2.92
2022-10-01T05:03:08.457Z,2.33
2022-10-01T05:05:35.373Z,2.78
2022-10-01T05:08:03.253Z,2.80
2022-10-01T05:10:30.206Z,2.95
2022-10-01T05:12:58.099Z,3.00
2022-10-01T05:15:25.017Z,4.28
2022-10-01T05:17:51.873Z,3.42
2022-10-01T05:20:21.541Z,3.22
2022-10-01T05:22:52.198Z,3.55
2022-10-01T05:25:19.793Z,3.08
2022-10-01T05:27:47.126Z,3.35
2022-10-01T05:30:20.204Z,3.03
2022-10-01T05:32:55.522Z,3.28
2022-10-01T05:35:22.383Z,3.03
2022-10-01T05:37:53.351Z,3.40
2022-10-01T05:40:20.194Z,3.40
2022-10-01T05:42:50.144Z,3.10
2022-10-01T05:45:17.315Z,3.17
2022-10-01T05:47:44.963Z,3.08
2022-10-01T05:50:11.845Z,3.38
2022-10-01T05:52:38.751Z,3.17
2022-10-01T05:55:05.838Z,3.72
2022-10-01T05:57:33.272Z,3.78
2022-10-01T06:00:00.202Z,3.97
2022-10-01T06:02:27.244Z,3.28
2022-10-01T06:04:54.174Z,3.80
2022-10-01T06:07:20.993Z,3.90
2022-10-01T06:09:47.919Z,4.10
2022-10-01T06:12:19.598Z,4.32
2022-10-01T06:14:46.679Z,5.25
2022-10-01T06:17:13.479Z,4.68
2022-10-01T06:19:40.231Z,5.72
2022-10-01T06:22:07.020Z,5.70
2022-10-01T06:24:34.119Z,6.57
2022-10-01T06:27:00.907Z,7.50
2022-10-01T06:29:27.677Z,7.68
2022-10-01T06:31:54.712Z,7.90
2022-10-01T06:34:21.685Z,8.57
2022-10-01T06:36:48.468Z,7.25
2022-10-01T06:39:15.357Z,8.00
2022-10-01T06:41:43.672Z,6.93
2022-10-01T06:44:10.892Z,5.82
2022-10-01T06:46:37.953Z,5.25
2022-10-01T06:49:04.747Z,6.82
2022-10-01T06:51:50.363Z,6.15
2022-10-01T06:54:18.495Z,6.55
2022-10-01T06:56:45.493Z,6.13
2022-10-01T06:59:12.543Z,6.68
2022-10-01T07:01:39.580Z,6.22
2022-10-01T07:04:06.801Z,6.45
2022-10-01T07:06:33.598Z,6.57
2022-10-01T07:09:00.539Z,5.65
2022-10-01T07:11:27.405Z,5.35
2022-10-01T07:13:57.767Z,5.95
2022-10-01T07:16:24.588Z,5.43
2022-10-01T07:18:52.351Z,4.97
2022-10-01T07:21:19.145Z,6.18
2022-10-01T07:23:45.896Z,6.13
2022-10-01T07:26:12.698Z,8.68
2022-10-01T07:28:39.571Z,7.15
2022-10-01T07:31:11.444Z,11.85
2022-10-01T07:33:39.440Z,11.60
2022-10-01T07:36:08.341Z,12.65
2022-10-01T07:38:35.664Z,13.20
2022-10-01T07:41:03.595Z,11.75
2022-10-01T07:43:33.181Z,12.77
2022-10-01T07:46:02.145Z,14.00
2022-10-01T07:48:29.041Z,12.80
2022-10-01T07:51:03.973Z,10.73
2022-10-01T07:53:31.170Z,8.23
2022-10-01T07:56:02.070Z,8.82
2022-10-01T07:58:31.534Z,9.23
2022-10-01T08:01:00.759Z,10.05
2022-10-01T08:03:27.782Z,10.45
2022-10-01T08:05:54.790Z,10.07
2022-10-01T08:08:21.624Z,10.07
2022-10-01T08:10:50.851Z,9.20
2022-10-01T08:13:18.244Z,10.13
2022-10-01T08:15:47.523Z,9.40
2022-10-01T08:18:14.706Z,9.65
2022-10-01T08:20:41.574Z,8.85
2022-10-01T08:23:14.344Z,8.55
2022-10-01T08:25:42.080Z,9.70
2022-10-01T08:28:11.126Z,8.98
2022-10-01T08:30:40.052Z,9.82
2022-10-01T08:33:08.024Z,7.90
2022-10-01T08:35:34.892Z,10.35
2022-10-01T08:38:03.523Z,10.90
2022-10-01T08:40:36.920Z,11.25
2022-10-01T08:43:08.770Z,11.02
2022-10-01T08:45:45.152Z,9.40
2022-10-01T08:48:56.898Z,8.73
2022-10-01T08:51:34.048Z,9.05
2022-10-01T08:54:17.274Z,8.60
2022-10-01T08:56:46.744Z,9.40
2022-10-01T08:59:47.291Z,8.93
2022-10-01T09:02:30.315Z,9.23
2022-10-01T09:05:01.750Z,8.48
2022-10-01T09:07:37.932Z,8.73
2022-10-01T09:10:26.849Z,10.50
2022-10-01T09:13:14.092Z,9.02
2022-10-01T09:15:52.091Z,8.00
2022-10-01T09:18:26.841Z,8.38
2022-10-01T09:20:59.062Z,7.38
2022-10-01T09:23:40.118Z,6.85
2022-10-01T09:26:12.444Z,7.07
2022-10-01T09:28:41.767Z,7.65
2022-10-01T09:31:25.018Z,7.07
2022-10-01T09:34:02.977Z,8.13
2022-10-01T09:36:58.816Z,8.57
2022-10-01T09:39:37.324Z,9.15
2022-10-01T09:42:04.501Z,8.20
2022-10-01T09:44:33.982Z,9.05
2022-10-01T09:47:00.895Z,9.10
2022-10-01T09:49:37.185Z,8.63
2022-10-01T09:52:28.803Z,8.82
2022-10-01T09:55:20.479Z,10.70
2022-10-01T09:58:18.584Z,9.98
2022-10-01T10:00:45.983Z,12.35
2022-10-01T10:03:28.988Z,12.60
2022-10-01T10:05:59.934Z,12.18
2022-10-01T10:08:28.523Z,12.15
2022-10-01T10:11:00.685Z,12.18
2022-10-01T10:13:35.409Z,11.70
2022-10-01T10:16:26.617Z,11.23
2022-10-01T10:19:02.482Z,11.43
2022-10-01T10:21:35.128Z,12.27
2022-10-01T10:24:07.483Z,12.88
2022-10-01T10:26:40.188Z,12.68
2022-10-01T10:29:24.797Z,11.73
2022-10-01T10:31:51.806Z,12.40
2022-10-01T10:34:27.942Z,11.48
2022-10-01T10:37:05.362Z,9.55
2022-10-01T10:39:36.549Z,10.70
2022-10-01T10:42:05.836Z,10.93
2022-10-01T10:44:39.121Z,10.80
2022-10-01T10:47:13.860Z,9.25
2022-10-01T10:49:52.260Z,6.90
2022-10-01T10:52:30.222Z,8.38
2022-10-01T10:54:59.403Z,6.93
2022-10-01T10:57:34.456Z,7.80
2022-10-01T11:00:13.666Z,7.88
2022-10-01T11:02:49.082Z,8.15
2022-10-01T11:05:20.903Z,7.93
2022-10-01T11:07:51.184Z,8.77
2022-10-01T11:10:47.287Z,8.35
2022-10-01T11:13:44.644Z,8.82
2022-10-01T11:16:36.224Z,7.63
2022-10-01T11:19:34.384Z,7.82
2022-10-01T11:22:16.381Z,7.78
2022-10-01T11:25:01.097Z,8.57
2022-10-01T11:27:42.792Z,9.32
2022-10-01T11:30:26.643Z,8.85
2022-10-01T11:33:00.884Z,8.80
2022-10-01T11:35:51.800Z,7.93
2022-10-01T11:38:24.758Z,6.80
2022-10-01T11:40:57.049Z,6.13
2022-10-01T11:43:31.943Z,6.18
2022-10-01T11:46:25.534Z,6.13
2022-10-01T11:49:02.603Z,4.35
2022-10-01T11:51:42.376Z,5.50
2022-10-01T11:54:15.936Z,4.30
2022-10-01T11:57:13.759Z,5.00
2022-10-01T12:00:08.605Z,6.75
2022-10-01T12:02:47.962Z,4.28
2022-10-01T12:05:22.185Z,6.50
2022-10-01T12:07:55.700Z,6.35
2022-10-01T12:10:38.999Z,6.00
2022-10-01T12:13:19.983Z,5.78
2022-10-01T12:15:56.392Z,4.80
2022-10-01T12:18:32.386Z,5.68
2022-10-01T12:21:07.893Z,5.22
2022-10-01T12:23:42.942Z,5.70
2022-10-01T12:26:47.326Z,5.15
2022-10-01T12:29:32.854Z,5.55
2022-10-01T12:32:25.595Z,5.63
2022-10-01T12:35:18.316Z,7.68
2022-10-01T12:38:00.663Z,9.60
2022-10-01T12:40:41.015Z,5.18
2022-10-01T12:43:35.973Z,4.20
2022-10-01T12:46:45.073Z,3.90
2022-10-01T12:49:41.046Z,4.70
2022-10-01T12:52:26.552Z,4.80
2022-10-01T12:55:14.083Z,6.13
2022-10-01T12:58:08.605Z,4.60
2022-10-01T13:00:43.123Z,5.38
2022-10-01T13:03:24.951Z,4.47
2022-10-01T13:06:10.907Z,4.00
2022-10-01T13:08:53.766Z,4.25
2022-10-01T13:11:20.860Z,3.88
2022-10-01T13:13:52.685Z,3.88
2022-10-01T13:16:35.040Z,4.30
2022-10-01T13:19:31.079Z,4.43
2022-10-01T13:22:14.918Z,4.18
2022-10-01T13:25:01.016Z,4.00
2022-10-01T13:27:44.306Z,3.92
2022-10-01T13:30:24.695Z,4.70
2022-10-01T13:32:53.587Z,5.25
2022-10-01T13:35:52.911Z,6.32
2022-10-01T13:38:38.014Z,5.75
2022-10-01T13:41:15.692Z,5.15
2022-10-01T13:43:52.701Z,5.13
2022-10-01T13:46:19.787Z,5.13
2022-10-01T13:48:50.657Z,4.55
2022-10-01T13:51:17.762Z,4.97
2022-10-01T13:53:45.088Z,4.70
2022-10-01T13:56:15.481Z,4.43
2022-10-01T13:58:45.071Z,4.57
2022-10-01T14:01:24.022Z,4.28
2022-10-01T14:03:57.592Z,4.13
2022-10-01T14:06:33.014Z,4.45
2022-10-01T14:09:25.101Z,4.50
2022-10-01T14:12:16.064Z,4.13
2022-10-01T14:15:13.636Z,4.30
2022-10-01T14:20:09.090Z,3.80
2022-10-01T14:22:53.275Z,3.60
2022-10-01T14:25:53.650Z,5.38
2022-10-01T14:28:29.883Z,5.63
2022-10-01T14:31:12.274Z,6.43
2022-10-01T14:34:28.517Z,5.95
2022-10-01T14:36:56.278Z,4.60
2022-10-01T14:39:27.919Z,4.07
2022-10-01T14:41:56.656Z,3.65
2022-10-01T14:44:36.478Z,4.00
2022-10-01T14:47:14.091Z,4.50
2022-10-01T14:49:40.955Z,6.10
2022-10-01T14:52:18.487Z,7.80
2022-10-01T14:55:00.939Z,6.57
2022-10-01T14:57:36.255Z,6.20
2022-10-01T15:00:13.996Z,6.05
2022-10-01T15:02:49.681Z,6.00
2022-10-01T15:05:20.387Z,6.30
2022-10-01T15:07:47.516Z,6.13
2022-10-01T15:10:19.145Z,5.65
2022-10-01T15:12:49.671Z,5.72
2022-10-01T15:15:31.443Z,5.72
2022-10-01T15:17:58.541Z,5.72
2022-10-01T15:20:25.594Z,6.55
2022-10-01T15:23:00.434Z,6.97
2022-10-01T15:25:31.371Z,8.00
2022-10-01T15:27:58.328Z,6.70
2022-10-01T15:30:28.202Z,7.55
2022-10-01T15:32:55.386Z,7.20
2022-10-01T15:35:23.697Z,7.15
2022-10-01T15:37:51.948Z,8.43
2022-10-01T15:40:30.918Z,9.32
2022-10-01T15:43:26.362Z,8.65
2022-10-01T15:46:05.252Z,13.07
2022-10-01T15:48:33.612Z,10.00
2022-10-01T15:51:16.784Z,7.90
2022-10-01T15:53:44.462Z,6.22
2022-10-01T15:56:19.291Z,8.65
2022-10-01T15:58:53.227Z,6.47
2022-10-01T16:01:30.023Z,6.78
2022-10-01T16:04:01.662Z,7.32
2022-10-01T16:06:35.292Z,7.80
2022-10-01T16:09:16.027Z,8.48
2022-10-01T16:12:02.357Z,7.28
2022-10-01T16:14:41.040Z,7.87
2022-10-01T16:17:17.173Z,6.63
2022-10-01T16:19:49.482Z,6.05
2022-10-01T16:22:28.886Z,6.25
2022-10-01T16:24:57.768Z,7.07
2022-10-01T16:27:31.746Z,6.97
2022-10-01T16:30:12.366Z,9.00
2022-10-01T16:32:39.158Z,7.57
2022-10-01T16:35:15.393Z,6.28
2022-10-01T16:37:42.415Z,5.55
2022-10-01T16:40:13.903Z,4.63
2022-10-01T16:42:43.745Z,4.78
2022-10-01T16:45:19.344Z,5.32
2022-10-01T16:47:46.593Z,4.55
2022-10-01T16:50:16.104Z,3.25
2022-10-01T16:52:43.334Z,4.10
2022-10-01T16:55:32.602Z,3.03
2022-10-01T16:57:59.399Z,2.83
2022-10-01T17:00:28.030Z,2.85
2022-10-01T17:02:56.211Z,4.13
2022-10-01T17:05:25.943Z,3.45
2022-10-01T17:07:54.192Z,5.03
2022-10-01T17:10:23.627Z,5.68
2022-10-01T17:12:51.088Z,4.03
2022-10-01T17:15:27.094Z,3.92
2022-10-01T17:17:54.993Z,4.32
2022-10-01T17:20:23.344Z,3.83
2022-10-01T17:22:50.994Z,5.00
2022-10-01T17:25:21.489Z,3.88
2022-10-01T17:27:49.091Z,6.13
2022-10-01T17:30:16.877Z,4.38
2022-10-01T17:32:44.944Z,6.43
2022-10-01T17:35:13.983Z,4.55
2022-10-01T17:37:41.573Z,3.65
2022-10-01T17:40:09.830Z,3.10
2022-10-01T17:42:37.018Z,3.17
2022-10-01T17:45:06.823Z,4.05
2022-10-01T17:47:33.996Z,3.75
2022-10-01T17:50:01.295Z,6.72
2022-10-01T17:52:30.702Z,4.63
2022-10-01T17:54:57.474Z,2.50
2022-10-01T17:57:24.843Z,2.55
2022-10-01T17:59:51.994Z,1.85
2022-10-01T18:02:40.499Z,2.55
2022-10-01T18:05:09.553Z,2.40
2022-10-01T18:07:37.365Z,2.88
2022-10-01T18:10:06.387Z,2.00
2022-10-01T18:12:33.982Z,2.35
2022-10-01T18:15:01.773Z,2.33
2022-10-01T18:17:29.173Z,2.58
2022-10-01T18:19:57.299Z,3.00
2022-10-01T18:22:24.155Z,4.55
2022-10-01T18:24:51.024Z,4.00
2022-10-01T18:27:17.993Z,3.00
2022-10-01T18:29:44.853Z,2.70
2022-10-01T18:32:36.154Z,2.40
2022-10-01T18:35:06.284Z,3.65
2022-10-01T18:37:40.448Z,3.80
2022-10-01T18:40:13.472Z,2.15
2022-10-01T18:43:06.713Z,1.95
2022-10-01T18:45:52.287Z,3.03
2022-10-01T18:48:53.647Z,3.13
2022-10-01T18:51:54.506Z,3.42
2022-10-01T18:54:34.695Z,3.70
2022-10-01T18:57:04.661Z,3.40
2022-10-01T18:59:47.010Z,2.75
2022-10-01T19:02:52.324Z,3.40
2022-10-01T19:05:42.166Z,5.75
2022-10-01T19:08:33.222Z,21.00
2022-10-01T19:11:03.037Z,4.72
2022-10-01T19:13:35.002Z,2.85
2022-10-01T19:16:17.013Z,3.90
2022-10-01T19:18:51.882Z,6.28
2022-10-01T19:21:25.533Z,6.30
2022-10-01T19:24:14.429Z,6.13
2022-10-01T19:26:43.977Z,4.25
2022-10-01T19:29:49.386Z,4.07
2022-10-01T19:32:24.064Z,4.32
2022-10-01T19:35:02.986Z,4.25
2022-10-01T19:37:29.742Z,7.40
2022-10-01T19:40:07.349Z,5.10
2022-10-01T19:42:39.762Z,3.80
2022-10-01T19:45:37.700Z,3.00
2022-10-01T19:48:26.199Z,2.58
2022-10-01T19:51:00.235Z,3.08
2022-10-01T19:53:32.078Z,4.63
2022-10-01T19:56:01.336Z,5.43
2022-10-01T19:58:30.548Z,4.60
2022-10-01T20:01:01.960Z,8.30
2022-10-01T20:03:39.508Z,7.03
2022-10-01T20:06:20.725Z,5.28
2022-10-01T20:08:53.758Z,5.75
2022-10-01T20:11:39.046Z,7.25
2022-10-01T20:14:39.555Z,6.93
2022-10-01T20:17:19.326Z,5.78
2022-10-01T20:19:51.686Z,5.55
2022-10-01T20:22:30.589Z,5.20
2022-10-01T20:25:00.302Z,4.43
2022-10-01T20:28:02.433Z,4.88
2022-10-01T20:30:34.478Z,3.95
2022-10-01T20:33:10.401Z,3.70
2022-10-01T20:36:07.478Z,4.10
2022-10-01T20:38:40.124Z,4.15
2022-10-01T20:41:14.747Z,3.92
2022-10-01T20:43:51.575Z,4.25
2022-10-01T20:46:35.500Z,4.75
2022-10-01T20:49:27.401Z,5.43
2022-10-01T20:52:11.303Z,5.70
2022-10-01T20:54:46.338Z,5.97
2022-10-01T20:57:33.339Z,7.00
2022-10-01T21:00:17.123Z,6.50
2022-10-01T21:02:51.110Z,5.57
2022-10-01T21:05:28.033Z,5.50
2022-10-01T21:08:11.015Z,5.32
2022-10-01T21:10:49.265Z,6.15
2022-10-01T21:13:25.679Z,6.13
2022-10-01T21:16:05.751Z,6.40
2022-10-01T21:18:39.805Z,5.43
2022-10-01T21:21:33.918Z,4.57
2022-10-01T21:24:26.119Z,3.97
2022-10-01T21:27:01.624Z,3.10
2022-10-01T21:29:51.607Z,3.28
2022-10-01T21:32:31.442Z,2.80
2022-10-01T21:35:28.284Z,2.90
2022-10-01T21:38:17.609Z,2.73
2022-10-01T21:41:06.615Z,2.40
2022-10-01T21:43:42.122Z,2.00
2022-10-01T21:46:49.378Z,1.77
2022-10-01T21:49:22.325Z,2.23
2022-10-01T21:52:10.697Z,2.13
2022-10-01T21:54:46.416Z,2.00
2022-10-01T21:57:22.383Z,1.90
2022-10-01T21:59:58.351Z,2.22
2022-10-01T22:02:27.941Z,2.00
2022-10-01T22:05:09.744Z,2.30
2022-10-01T22:07:55.062Z,1.77
2022-10-01T22:10:36.698Z,1.90
2022-10-01T22:13:12.115Z,1.80
2022-10-01T22:15:43.349Z,2.00
2022-10-01T22:18:19.532Z,1.95
2022-10-01T22:20:48.002Z,1.70
2022-10-01T22:23:18.770Z,1.75
2022-10-01T22:25:57.878Z,1.83
2022-10-01T22:28:33.081Z,1.70
2022-10-01T22:31:03.331Z,1.67
2022-10-01T22:33:38.531Z,2.03
2022-10-01T22:36:22.192Z,1.70
2022-10-01T22:39:07.782Z,1.40
2022-10-01T22:41:41.416Z,1.42
2022-10-01T22:44:20.411Z,1.60
2022-10-01T22:46:49.914Z,1.38
2022-10-01T22:49:40.979Z,1.45
2022-10-01T22:52:34.181Z,1.73
2022-10-01T22:55:45.535Z,1.88
2022-10-01T22:58:45.353Z,1.45
2022-10-01T23:01:41.185Z,1.50
2022-10-01T23:04:41.242Z,1.52
2022-10-01T23:07:19.977Z,1.83
2022-10-01T23:10:13.483Z,1.75
2022-10-01T23:13:15.444Z,2.13
2022-10-01T23:16:13.098Z,1.92
2022-10-01T23:21:32.823Z,1.60
2022-10-01T23:24:18.066Z,2.08
2022-10-01T23:27:22.072Z,1.90
2022-10-01T23:30:12.199Z,1.70
2022-10-01T23:33:01.256Z,2.40
2022-10-01T23:35:59.415Z,2.10
2022-10-01T23:38:29.892Z,1.88
2022-10-01T23:41:02.234Z,1.70
2022-10-01T23:43:41.551Z,1.92
2022-10-01T23:46:14.684Z,2.13
2022-10-01T23:48:48.601Z,2.30
2022-10-01T23:51:46.070Z,2.00
2022-10-01T23:54:36.932Z,2.10
2022-10-01T23:57:31.432Z,2.13
